메인 페이지
METAR-TAF:

METAR-TAF

공항 :

트라브존 공항

트라브존, 터키

위도: 41-00N, 경도: 039-43E, 고도: 35m

현재 날씨관측

예보는 44분 전, 08:20시(UTC)에 발표되었습니다.
여러 방향의 바람 3kt
온도 13°C
습도 54%
기압 1019 hPa
시정 10km 이상
고도 3500ft 상공 구름 조금

METAR: LTCG 090820Z VRB03KT 9999 FEW035 13/04 Q1019 NOSIG RMK RWY29 VRB02KT

시각: 12:04 (09:04 UTC)

예보

예보는 4 시간 24분 전, 04:40시(UTC)에 발표되었습니다.
예보 대상 시간: 09일 06시부터 10일 06시까지 (UTC)
8kt
시정 10km 이상
고도 3500ft 상공 구름 보통
전환 중
09일 09시부터 09일 12시까지 (UTC)
시정 10km 이상
1500m 미만 상공 구름 및 적란운 없음
확률 30%
09일 16시부터 09일 19시까지 (UTC)
시정: 4500m
연기

TAF: LTCG 090440Z 0906/1006 18008KT 9999 SCT035 BECMG 0909/0912 CAVOK PROB30 0916/0919 4500 FU

4,000개 이상의 공항 관측 자료 및 예보 (METAR 및 TAF 보고).

지도상에서 검색 가능한 기상관측소가 노란 점과 빨간 점으로 표시되어 있습니다.

기상관측소 명을 보려면 표시 위로 마우스를 이동하세요.

날씨 관측과 예보를 보려면 클릭하세요.

지도 변경 : 확대하려면 엑스 표시가 있는 녹색 버튼, 축소하려면 빼기 표시가 있는 녹색 버튼, 다음 페이지의 지도를 보려면 녹색 화살표를 클릭하세요.


METAR-TAF: